Time;durP1;ratioP1;P1;durP2;ratioP2;P2;SDS_P1;SDS_P2;PMS_P1;PMS_P2;Temp;Humidity;BMP_temperature;BMP_pressure;BME280_temperature;BME280_humidity;BME280_pressure;Samples;Min_cycle;Max_cycle;Signal;HPM_P1;HPM_P2
2022/11/05 00:10:50;;;;;;;5.27;3.40;;;;;;;;;;4968756;28;20447;-55
2022/11/05 00:16:42;;;;;;;5.90;3.20;;;;;;;;;;4972796;28;20440;-56
2022/11/05 00:19:05;;;;;;;3.50;2.63;;;;;;;;;;4971596;28;20527;-56
2022/11/05 00:27:01;;;;;;;4.80;2.90;;;;;;;;;;4951445;28;20504;-54
2022/11/05 00:29:26;;;;;;;3.50;3.20;;;;;;;;;;4972531;28;20441;-54
2022/11/05 00:31:52;;;;;;;2.57;2.37;;;;;;;;;;4953343;28;20572;-56
2022/11/05 00:34:19;;;;;;;5.80;3.27;;;;;;;;;;4976892;28;20519;-57
2022/11/05 00:36:44;;;;;;;3.63;2.40;;;;;;;;;;4964092;28;20441;-54
2022/11/05 00:39:10;;;;;;;6.63;2.83;;;;;;;;;;4973138;28;20449;-55
2022/11/05 00:41:37;;;;;;;2.40;2.20;;;;;;;;;;4950188;28;20440;-55
2022/11/05 00:46:48;;;;;;;3.83;2.47;;;;;;;;;;4951880;28;20471;-54
2022/11/05 00:49:29;;;;;;;6.07;2.77;;;;;;;;;;4981308;28;20469;-55
2022/11/05 00:54:40;;;;;;;4.43;2.90;;;;;;;;;;4974344;28;20485;-54
2022/11/05 00:57:06;;;;;;;2.83;2.50;;;;;;;;;;4953843;28;21687;-56
2022/11/05 00:59:32;;;;;;;4.80;2.70;;;;;;;;;;4968716;28;20541;-56
2022/11/05 01:01:58;;;;;;;4.80;2.73;;;;;;;;;;4952073;28;20442;-57
2022/11/05 01:04:24;;;;;;;3.80;2.57;;;;;;;;;;4966638;28;20450;-54
2022/11/05 01:06:50;;;;;;;2.30;2.10;;;;;;;;;;4969169;28;20464;-55
2022/11/05 01:09:16;;;;;;;6.50;2.90;;;;;;;;;;4974246;28;20428;-55
2022/11/05 01:11:42;;;;;;;4.57;2.90;;;;;;;;;;4940949;28;21243;-58
2022/11/05 01:14:09;;;;;;;2.90;2.43;;;;;;;;;;4972419;28;20536;-55
2022/11/05 01:16:35;;;;;;;2.97;2.40;;;;;;;;;;4940241;28;20482;-56
2022/11/05 01:19:01;;;;;;;3.50;2.20;;;;;;;;;;4956741;28;21015;-54
2022/11/05 01:21:27;;;;;;;3.43;2.70;;;;;;;;;;4943909;28;20449;-55
2022/11/05 01:23:53;;;;;;;3.40;2.27;;;;;;;;;;4965495;28;20449;-54
2022/11/05 01:26:19;;;;;;;4.37;2.73;;;;;;;;;;4927599;28;20579;-54
2022/11/05 01:28:50;;;;;;;5.27;3.00;;;;;;;;;;4966383;28;20448;-56
2022/11/05 01:31:16;;;;;;;3.80;3.40;;;;;;;;;;4939564;28;20472;-55
2022/11/05 01:33:42;;;;;;;4.23;2.77;;;;;;;;;;4968896;28;20781;-55
2022/11/05 01:36:08;;;;;;;4.07;2.90;;;;;;;;;;4947117;28;20476;-55
2022/11/05 01:38:34;;;;;;;6.20;2.30;;;;;;;;;;4971805;28;20440;-55
2022/11/05 01:41:00;;;;;;;3.40;2.40;;;;;;;;;;4964440;28;20473;-55
2022/11/05 01:43:26;;;;;;;2.90;2.40;;;;;;;;;;4970037;28;20479;-55
2022/11/05 01:45:56;;;;;;;2.50;1.93;;;;;;;;;;4941357;28;20486;-55
2022/11/05 01:48:24;;;;;;;4.90;1.93;;;;;;;;;;4974281;28;20895;-55
2022/11/05 01:50:49;;;;;;;2.30;1.70;;;;;;;;;;4954839;28;20508;-54
2022/11/05 01:53:18;;;;;;;6.07;2.50;;;;;;;;;;4977316;28;20519;-54
2022/11/05 01:55:48;;;;;;;2.03;1.83;;;;;;;;;;4912385;28;20455;-56
2022/11/05 01:58:16;;;;;;;4.73;2.80;;;;;;;;;;4969309;28;20472;-57
2022/11/05 02:00:42;;;;;;;2.93;2.40;;;;;;;;;;4952243;28;20440;-55
2022/11/05 02:03:08;;;;;;;2.50;1.70;;;;;;;;;;4972234;28;20438;-57
2022/11/05 02:05:34;;;;;;;2.80;2.13;;;;;;;;;;4954345;28;20461;-55
2022/11/05 02:08:00;;;;;;;1.83;1.50;;;;;;;;;;4969200;28;20445;-53
2022/11/05 02:10:26;;;;;;;2.40;1.90;;;;;;;;;;4964996;28;20449;-55
2022/11/05 02:12:52;;;;;;;3.17;2.50;;;;;;;;;;4963132;28;20557;-55
2022/11/05 02:15:24;;;;;;;2.53;2.07;;;;;;;;;;4956588;28;20456;-55
2022/11/05 02:18:03;;;;;;;3.73;2.40;;;;;;;;;;4951212;28;20434;-54
2022/11/05 02:20:40;;;;;;;1.83;1.37;;;;;;;;;;4963069;28;20443;-55
2022/11/05 02:23:21;;;;;;;3.13;1.87;;;;;;;;;;4943694;28;20494;-55
2022/11/05 02:26:02;;;;;;;4.07;2.23;;;;;;;;;;4960325;28;20501;-55
2022/11/05 02:28:28;;;;;;;2.70;1.80;;;;;;;;;;4926637;28;20514;-55
2022/11/05 02:30:59;;;;;;;2.63;1.90;;;;;;;;;;4959294;28;20485;-54
2022/11/05 02:33:25;;;;;;;2.00;1.60;;;;;;;;;;4947518;28;20456;-55
2022/11/05 02:35:55;;;;;;;2.47;1.47;;;;;;;;;;4954027;28;20430;-54
2022/11/05 02:38:31;;;;;;;5.73;2.60;;;;;;;;;;4926204;28;20221;-55
2022/11/05 02:41:13;;;;;;;2.50;1.70;;;;;;;;;;4957925;28;20467;-54
2022/11/05 02:43:58;;;;;;;2.73;1.90;;;;;;;;;;4939891;28;20972;-57
2022/11/05 02:46:25;;;;;;;2.60;2.07;;;;;;;;;;4954212;28;20543;-55
2022/11/05 02:49:07;;;;;;;1.70;1.33;;;;;;;;;;4957418;28;20580;-55
2022/11/05 02:51:45;;;;;;;2.07;1.17;;;;;;;;;;4959604;28;20717;-55
2022/11/05 02:54:11;;;;;;;2.07;1.40;;;;;;;;;;4977488;28;22512;-53
2022/11/05 02:56:41;;;;;;;4.20;1.80;;;;;;;;;;4939098;28;20677;-53
2022/11/05 02:59:07;;;;;;;2.43;1.60;;;;;;;;;;4976301;28;20487;-55
2022/11/05 03:01:34;;;;;;;3.40;1.63;;;;;;;;;;4972106;28;20450;-55
2022/11/05 03:04:00;;;;;;;1.93;1.70;;;;;;;;;;4971615;28;20429;-55
2022/11/05 03:06:32;;;;;;;2.47;1.43;;;;;;;;;;4961415;28;21285;-55
2022/11/05 03:09:10;;;;;;;2.50;1.70;;;;;;;;;;4976144;28;20494;-55
2022/11/05 03:11:49;;;;;;;2.70;2.00;;;;;;;;;;4969488;28;20500;-56
2022/11/05 03:14:20;;;;;;;3.07;1.67;;;;;;;;;;4970251;28;20447;-55
2022/11/05 03:16:48;;;;;;;2.20;1.27;;;;;;;;;;4941880;28;21398;-55
2022/11/05 03:19:17;;;;;;;2.57;1.70;;;;;;;;;;4962254;28;20452;-55
2022/11/05 03:21:47;;;;;;;2.17;1.57;;;;;;;;;;4964759;28;20440;-58
2022/11/05 03:24:15;;;;;;;1.70;1.30;;;;;;;;;;4960156;28;20496;-54
2022/11/05 03:27:10;;;;;;;2.10;1.57;;;;;;;;;;4970747;28;20449;-55
2022/11/05 03:29:37;;;;;;;2.50;1.80;;;;;;;;;;4957195;28;20459;-54
2022/11/05 03:32:04;;;;;;;1.87;1.33;;;;;;;;;;4934788;28;20484;-55
2022/11/05 03:34:31;;;;;;;3.00;2.07;;;;;;;;;;4970919;28;20458;-53
2022/11/05 03:36:57;;;;;;;2.23;1.70;;;;;;;;;;4948374;28;20582;-55
2022/11/05 03:39:30;;;;;;;2.47;1.97;;;;;;;;;;4967469;28;20452;-55
2022/11/05 03:41:57;;;;;;;1.80;1.50;;;;;;;;;;4960056;28;20953;-55
2022/11/05 03:44:27;;;;;;;2.37;1.90;;;;;;;;;;4967891;28;20899;-55
2022/11/05 03:46:53;;;;;;;3.63;2.43;;;;;;;;;;4940492;28;20464;-56
2022/11/05 03:49:21;;;;;;;2.20;1.60;;;;;;;;;;4981408;28;20908;-53
2022/11/05 03:51:55;;;;;;;4.20;1.90;;;;;;;;;;4953650;28;20990;-55
2022/11/05 03:54:21;;;;;;;2.90;1.83;;;;;;;;;;4967605;28;20441;-55
2022/11/05 03:57:06;;;;;;;3.10;1.70;;;;;;;;;;4983216;28;20445;-55
2022/11/05 03:59:32;;;;;;;3.97;2.70;;;;;;;;;;4969047;28;20492;-55
2022/11/05 04:01:58;;;;;;;4.60;2.10;;;;;;;;;;4948471;28;20611;-57
2022/11/05 04:04:24;;;;;;;2.40;1.80;;;;;;;;;;4973890;28;20433;-55
2022/11/05 04:15:04;;;;;;;3.40;2.00;;;;;;;;;;4975087;28;21122;-55
2022/11/05 04:17:30;;;;;;;4.20;2.30;;;;;;;;;;4948532;28;20461;-55
2022/11/05 04:25:25;;;;;;;3.30;2.60;;;;;;;;;;4970393;28;22378;-55
2022/11/05 04:27:51;;;;;;;2.20;1.93;;;;;;;;;;4974401;28;20445;-53
2022/11/05 04:30:17;;;;;;;3.53;2.07;;;;;;;;;;4970761;28;20452;-54
2022/11/05 04:32:56;;;;;;;4.00;2.67;;;;;;;;;;4965436;28;20512;-54
2022/11/05 04:35:22;;;;;;;3.00;2.27;;;;;;;;;;4972373;28;20435;-54
2022/11/05 04:37:48;;;;;;;3.73;2.00;;;;;;;;;;4936973;28;20514;-56
2022/11/05 04:40:14;;;;;;;2.57;2.10;;;;;;;;;;4978852;28;20437;-56
2022/11/05 04:42:40;;;;;;;4.00;1.80;;;;;;;;;;4957045;28;20449;-56
2022/11/05 04:45:06;;;;;;;3.30;2.27;;;;;;;;;;4978001;28;20559;-56
2022/11/05 04:47:32;;;;;;;2.70;2.50;;;;;;;;;;4974872;28;20448;-56
2022/11/05 04:49:57;;;;;;;4.17;2.73;;;;;;;;;;4968161;28;20433;-57
2022/11/05 04:52:23;;;;;;;6.77;1.90;;;;;;;;;;4915719;28;23047;-54
2022/11/05 04:54:49;;;;;;;3.00;2.20;;;;;;;;;;4977621;28;20636;-56
2022/11/05 04:57:15;;;;;;;2.20;1.67;;;;;;;;;;4950616;28;21324;-55
2022/11/05 04:59:41;;;;;;;3.13;2.03;;;;;;;;;;4980588;28;20421;-51
2022/11/05 05:02:07;;;;;;;2.50;1.87;;;;;;;;;;4953865;28;21943;-55
2022/11/05 05:04:33;;;;;;;2.47;1.60;;;;;;;;;;4972385;28;20472;-54
2022/11/05 05:07:05;;;;;;;2.07;1.87;;;;;;;;;;4940539;28;20462;-55
2022/11/05 05:09:31;;;;;;;3.80;2.10;;;;;;;;;;4976065;28;20565;-55
2022/11/05 05:11:57;;;;;;;3.80;2.37;;;;;;;;;;4972957;28;21267;-55
2022/11/05 05:14:23;;;;;;;3.90;3.07;;;;;;;;;;4973388;28;20523;-55
2022/11/05 05:16:49;;;;;;;10.10;4.80;;;;;;;;;;4969522;28;21223;-55
2022/11/05 05:19:15;;;;;;;10.50;5.30;;;;;;;;;;4975409;28;20464;-54
2022/11/05 05:21:42;;;;;;;9.90;6.77;;;;;;;;;;4956477;28;20531;-54
2022/11/05 05:24:09;;;;;;;6.63;5.57;;;;;;;;;;4966115;28;20452;-54
2022/11/05 05:26:35;;;;;;;10.30;6.23;;;;;;;;;;4964994;28;20456;-57
2022/11/05 05:29:02;;;;;;;10.67;7.13;;;;;;;;;;4951671;28;20449;-55
2022/11/05 05:31:28;;;;;;;8.63;7.43;;;;;;;;;;4979304;28;20488;-54
2022/11/05 05:33:54;;;;;;;8.33;6.23;;;;;;;;;;4949911;28;20440;-54
2022/11/05 05:36:20;;;;;;;10.50;6.83;;;;;;;;;;4969102;28;20441;-55
2022/11/05 05:38:46;;;;;;;10.07;7.70;;;;;;;;;;4969654;28;20511;-55
2022/11/05 05:41:12;;;;;;;10.13;7.17;;;;;;;;;;4975795;28;20496;-54
2022/11/05 05:43:38;;;;;;;12.07;7.77;;;;;;;;;;4928644;28;20448;-54
2022/11/05 05:46:08;;;;;;;16.03;9.50;;;;;;;;;;4974967;28;21220;-55
2022/11/05 05:48:34;;;;;;;14.33;7.83;;;;;;;;;;4952093;28;21799;-54
2022/11/05 05:51:03;;;;;;;10.33;7.60;;;;;;;;;;4971388;28;20487;-54
2022/11/05 05:53:29;;;;;;;13.30;8.80;;;;;;;;;;4961447;28;20450;-54
2022/11/05 05:55:55;;;;;;;10.10;7.57;;;;;;;;;;4967266;28;20508;-54
2022/11/05 05:58:22;;;;;;;13.27;8.57;;;;;;;;;;4940166;28;20445;-55
2022/11/05 06:00:48;;;;;;;13.60;8.67;;;;;;;;;;4974531;28;20441;-54
2022/11/05 06:03:14;;;;;;;17.50;10.90;;;;;;;;;;4969891;28;20429;-55
2022/11/05 06:05:40;;;;;;;18.87;10.77;;;;;;;;;;4964327;28;20536;-55
2022/11/05 06:08:06;;;;;;;19.10;11.30;;;;;;;;;;4948706;28;20446;-56
2022/11/05 06:10:32;;;;;;;20.33;11.90;;;;;;;;;;4943133;28;20436;-55
2022/11/05 06:13:01;;;;;;;18.40;10.97;;;;;;;;;;4966279;28;22521;-56
2022/11/05 06:15:27;;;;;;;18.50;12.30;;;;;;;;;;4918503;28;20456;-55
2022/11/05 06:17:53;;;;;;;21.30;11.97;;;;;;;;;;4953242;28;20642;-58
2022/11/05 06:20:19;;;;;;;17.50;12.20;;;;;;;;;;4939446;28;20450;-54
2022/11/05 06:22:53;;;;;;;18.10;13.07;;;;;;;;;;4965374;28;20445;-53
2022/11/05 06:25:19;;;;;;;20.73;13.57;;;;;;;;;;4937790;28;20495;-54
2022/11/05 06:27:45;;;;;;;22.07;13.40;;;;;;;;;;4958454;28;20450;-57
2022/11/05 06:30:11;;;;;;;19.37;12.77;;;;;;;;;;4934850;28;20548;-57
2022/11/05 06:32:37;;;;;;;22.73;13.83;;;;;;;;;;4970813;28;20510;-57
2022/11/05 06:35:03;;;;;;;25.57;15.10;;;;;;;;;;4949839;28;20437;-57
2022/11/05 06:37:32;;;;;;;19.90;13.53;;;;;;;;;;4980086;28;20584;-55
2022/11/05 06:39:58;;;;;;;20.50;12.20;;;;;;;;;;4948786;28;20455;-57
2022/11/05 06:42:24;;;;;;;21.90;14.13;;;;;;;;;;4969150;28;20452;-56
2022/11/05 06:44:51;;;;;;;22.90;13.30;;;;;;;;;;4941508;28;20525;-56
2022/11/05 06:47:18;;;;;;;20.70;13.50;;;;;;;;;;4970003;28;20440;-58
2022/11/05 06:49:44;;;;;;;29.37;15.87;;;;;;;;;;4981391;28;21256;-56
2022/11/05 06:52:10;;;;;;;21.63;14.43;;;;;;;;;;4976643;28;20499;-54
2022/11/05 06:54:35;;;;;;;23.97;13.80;;;;;;;;;;4980675;28;20515;-56
2022/11/05 06:57:03;;;;;;;28.77;16.40;;;;;;;;;;4983278;28;20448;-57
2022/11/05 06:59:29;;;;;;;25.80;15.23;;;;;;;;;;4967123;28;20444;-57
2022/11/05 07:01:55;;;;;;;28.40;15.47;;;;;;;;;;4969833;28;20479;-57
2022/11/05 07:07:17;;;;;;;28.40;17.10;;;;;;;;;;4972006;28;20541;-59
2022/11/05 07:09:43;;;;;;;25.20;14.70;;;;;;;;;;4973513;28;20531;-55
2022/11/05 07:12:09;;;;;;;26.07;15.20;;;;;;;;;;4976135;28;20542;-59
2022/11/05 07:14:35;;;;;;;26.10;16.47;;;;;;;;;;4973045;28;21160;-55
2022/11/05 07:17:01;;;;;;;26.50;15.60;;;;;;;;;;4966734;28;20445;-56
2022/11/05 07:19:28;;;;;;;24.87;15.20;;;;;;;;;;4953761;28;21299;-56
2022/11/05 07:21:54;;;;;;;22.40;14.47;;;;;;;;;;4962853;28;20451;-56
2022/11/05 07:24:20;;;;;;;23.90;13.90;;;;;;;;;;4953949;28;21019;-56
2022/11/05 07:26:46;;;;;;;25.30;16.30;;;;;;;;;;4966225;28;20449;-56
2022/11/05 07:29:12;;;;;;;25.03;14.37;;;;;;;;;;4968373;28;20525;-57
2022/11/05 07:31:38;;;;;;;23.63;14.43;;;;;;;;;;4971694;28;20476;-56
2022/11/05 07:34:04;;;;;;;23.90;14.03;;;;;;;;;;4975623;28;20464;-59
2022/11/05 07:36:30;;;;;;;21.70;14.23;;;;;;;;;;4959144;28;20544;-56
2022/11/05 07:38:56;;;;;;;24.37;14.50;;;;;;;;;;4976230;28;20523;-58
2022/11/05 07:41:22;;;;;;;24.70;14.47;;;;;;;;;;4933658;28;20548;-56
2022/11/05 07:43:48;;;;;;;21.53;13.67;;;;;;;;;;4971950;28;20455;-58
2022/11/05 07:46:14;;;;;;;23.37;14.17;;;;;;;;;;4946121;28;20441;-56
2022/11/05 07:48:40;;;;;;;22.00;14.03;;;;;;;;;;4969729;28;20523;-56
2022/11/05 07:51:06;;;;;;;20.70;13.23;;;;;;;;;;4926515;28;20491;-55
2022/11/05 07:53:32;;;;;;;21.20;14.43;;;;;;;;;;4965932;28;20430;-55
2022/11/05 07:55:58;;;;;;;19.87;13.00;;;;;;;;;;4963958;28;20548;-56
2022/11/05 07:58:24;;;;;;;20.40;15.07;;;;;;;;;;4966351;28;20548;-57
2022/11/05 08:00:50;;;;;;;17.03;12.00;;;;;;;;;;4947724;28;20447;-56
2022/11/05 08:03:16;;;;;;;14.97;10.57;;;;;;;;;;4961382;28;20456;-56
2022/11/05 08:05:46;;;;;;;19.60;11.77;;;;;;;;;;4939528;28;20523;-56
2022/11/05 08:08:13;;;;;;;16.93;10.30;;;;;;;;;;4964172;28;21376;-58
2022/11/05 08:10:42;;;;;;;15.07;9.90;;;;;;;;;;4972617;28;20445;-58
2022/11/05 08:13:09;;;;;;;12.77;9.50;;;;;;;;;;4931727;28;21193;-57
2022/11/05 08:15:35;;;;;;;9.83;6.90;;;;;;;;;;4941155;28;20456;-55
2022/11/05 08:18:05;;;;;;;6.97;5.23;;;;;;;;;;4971045;28;21199;-56
2022/11/05 08:20:31;;;;;;;8.07;5.40;;;;;;;;;;4944895;28;21341;-54
2022/11/05 08:22:57;;;;;;;7.23;5.90;;;;;;;;;;4970506;28;21030;-57
2022/11/05 08:25:23;;;;;;;6.93;5.27;;;;;;;;;;4961749;28;20437;-55
2022/11/05 08:27:56;;;;;;;9.00;5.67;;;;;;;;;;4966414;28;20954;-55
2022/11/05 08:30:22;;;;;;;5.67;4.30;;;;;;;;;;4964911;28;20432;-53
2022/11/05 08:32:48;;;;;;;5.37;4.53;;;;;;;;;;4968160;28;20480;-54
2022/11/05 08:35:14;;;;;;;8.40;4.73;;;;;;;;;;4939069;28;20868;-54
2022/11/05 08:37:40;;;;;;;6.30;3.90;;;;;;;;;;4973213;28;20449;-54
2022/11/05 08:40:06;;;;;;;6.70;4.17;;;;;;;;;;4963385;28;20511;-56
2022/11/05 08:42:32;;;;;;;6.20;3.70;;;;;;;;;;4931167;28;1086358;-55
2022/11/05 08:45:03;;;;;;;7.27;4.13;;;;;;;;;;4961556;28;20513;-54
2022/11/05 08:47:30;;;;;;;6.67;4.20;;;;;;;;;;4956430;28;20543;-56
2022/11/05 08:49:56;;;;;;;8.30;4.27;;;;;;;;;;4962306;28;20533;-57
2022/11/05 08:52:25;;;;;;;9.13;4.07;;;;;;;;;;4956481;28;20582;-56
2022/11/05 08:54:52;;;;;;;7.50;3.83;;;;;;;;;;4949221;28;20455;-57
2022/11/05 08:57:18;;;;;;;7.17;3.93;;;;;;;;;;4960308;28;20450;-55
2022/11/05 08:59:44;;;;;;;5.53;4.27;;;;;;;;;;4958488;28;20436;-55
2022/11/05 09:02:10;;;;;;;7.80;4.00;;;;;;;;;;4968683;28;20472;-56
2022/11/05 09:04:36;;;;;;;4.60;4.10;;;;;;;;;;4963855;28;21064;-55
2022/11/05 09:07:02;;;;;;;5.37;3.73;;;;;;;;;;4963824;28;20441;-54
2022/11/05 09:09:28;;;;;;;12.70;5.30;;;;;;;;;;4948311;28;20471;-55
2022/11/05 09:11:54;;;;;;;6.00;4.03;;;;;;;;;;4965713;28;20982;-55
2022/11/05 09:14:20;;;;;;;6.90;5.00;;;;;;;;;;4964219;28;20445;-55
2022/11/05 09:16:46;;;;;;;5.90;5.17;;;;;;;;;;4968571;28;20472;-54
2022/11/05 09:19:12;;;;;;;8.20;4.87;;;;;;;;;;4936845;28;20484;-55
2022/11/05 09:21:38;;;;;;;9.07;4.60;;;;;;;;;;4975423;28;20436;-55
2022/11/05 09:24:04;;;;;;;7.97;4.37;;;;;;;;;;4969010;28;20516;-54
2022/11/05 09:26:30;;;;;;;7.23;4.47;;;;;;;;;;4969342;28;20442;-54
2022/11/05 09:28:56;;;;;;;9.53;5.00;;;;;;;;;;4935778;28;20471;-55
2022/11/05 09:31:22;;;;;;;11.83;5.60;;;;;;;;;;4970293;28;20476;-55
2022/11/05 09:33:48;;;;;;;6.90;4.87;;;;;;;;;;4970659;28;20433;-55
2022/11/05 09:36:14;;;;;;;7.90;6.13;;;;;;;;;;4971207;28;20449;-54
2022/11/05 09:38:41;;;;;;;7.20;4.40;;;;;;;;;;4935248;28;20448;-54
2022/11/05 09:41:10;;;;;;;6.67;4.50;;;;;;;;;;4952674;28;20455;-55
2022/11/05 09:43:37;;;;;;;7.47;5.03;;;;;;;;;;4974184;28;20442;-54
2022/11/05 09:46:07;;;;;;;8.70;5.47;;;;;;;;;;4968675;28;20448;-55
2022/11/05 09:48:40;;;;;;;7.27;4.90;;;;;;;;;;4966675;28;20453;-54
2022/11/05 09:51:07;;;;;;;8.73;5.80;;;;;;;;;;4948606;28;21098;-55
2022/11/05 09:53:33;;;;;;;6.70;4.83;;;;;;;;;;4971365;28;20433;-55
2022/11/05 09:55:59;;;;;;;9.07;6.10;;;;;;;;;;4967016;28;20436;-55
2022/11/05 09:58:29;;;;;;;8.00;5.93;;;;;;;;;;4971098;28;20437;-54
2022/11/05 10:00:57;;;;;;;6.93;5.33;;;;;;;;;;4936080;28;20456;-56
2022/11/05 10:03:23;;;;;;;10.47;7.07;;;;;;;;;;4969330;28;20454;-54
2022/11/05 10:05:49;;;;;;;10.73;6.10;;;;;;;;;;4946843;28;20434;-54
2022/11/05 10:08:18;;;;;;;10.50;6.67;;;;;;;;;;4973069;28;20424;-53
2022/11/05 10:10:45;;;;;;;12.27;6.47;;;;;;;;;;4950993;28;20517;-54
2022/11/05 10:13:14;;;;;;;13.37;7.47;;;;;;;;;;4973134;28;20447;-54
2022/11/05 10:15:42;;;;;;;7.50;5.50;;;;;;;;;;4967832;28;20440;-54
2022/11/05 10:18:11;;;;;;;10.33;6.47;;;;;;;;;;4955704;28;20463;-54
2022/11/05 10:20:52;;;;;;;11.17;6.97;;;;;;;;;;4960895;28;20449;-55
2022/11/05 10:23:19;;;;;;;10.20;6.33;;;;;;;;;;4927393;28;20452;-54
2022/11/05 10:25:46;;;;;;;12.63;7.90;;;;;;;;;;4968153;28;20441;-54
2022/11/05 10:28:16;;;;;;;14.33;7.57;;;;;;;;;;4924078;28;20487;-54
2022/11/05 10:30:43;;;;;;;10.33;7.07;;;;;;;;;;4946064;28;20593;-54
2022/11/05 10:36:25;;;;;;;12.13;7.90;;;;;;;;;;4929073;28;20465;-55
2022/11/05 10:38:53;;;;;;;12.47;8.03;;;;;;;;;;4967801;28;20494;-54
2022/11/05 10:41:31;;;;;;;14.47;9.30;;;;;;;;;;4943356;28;20452;-55
2022/11/05 10:44:10;;;;;;;11.60;7.03;;;;;;;;;;4967860;28;20459;-54
2022/11/05 10:46:39;;;;;;;10.30;6.73;;;;;;;;;;4976596;28;20524;-54
2022/11/05 10:49:17;;;;;;;12.10;7.03;;;;;;;;;;4967041;28;20484;-55
2022/11/05 10:51:43;;;;;;;12.40;6.87;;;;;;;;;;4954106;28;21119;-55
2022/11/05 10:54:17;;;;;;;8.90;6.50;;;;;;;;;;4958799;28;20434;-55
2022/11/05 10:56:43;;;;;;;9.30;6.60;;;;;;;;;;4948605;28;20472;-55
2022/11/05 10:59:20;;;;;;;10.07;6.60;;;;;;;;;;4961863;28;20536;-55
2022/11/05 11:01:46;;;;;;;13.67;7.30;;;;;;;;;;4959935;28;21143;-55
2022/11/05 11:04:21;;;;;;;10.77;6.00;;;;;;;;;;4958937;28;20527;-55
2022/11/05 11:06:50;;;;;;;9.33;6.10;;;;;;;;;;4956105;28;20450;-56
2022/11/05 11:09:27;;;;;;;9.90;6.30;;;;;;;;;;4953582;28;20928;-58
2022/11/05 11:11:58;;;;;;;8.00;5.50;;;;;;;;;;4965226;28;20487;-55
2022/11/05 11:14:24;;;;;;;8.07;5.73;;;;;;;;;;4966402;28;20490;-56
2022/11/05 11:16:50;;;;;;;7.03;5.20;;;;;;;;;;4970412;28;20436;-55
2022/11/05 11:19:35;;;;;;;8.70;5.80;;;;;;;;;;4958676;28;20444;-56
2022/11/05 11:22:04;;;;;;;14.80;7.50;;;;;;;;;;4974320;28;20440;-55
2022/11/05 11:24:40;;;;;;;9.10;5.13;;;;;;;;;;4950328;28;20911;-56
2022/11/05 11:27:10;;;;;;;8.73;5.43;;;;;;;;;;4961624;28;20469;-55
2022/11/05 11:29:38;;;;;;;13.33;6.70;;;;;;;;;;4963697;28;20445;-55
2022/11/05 11:32:08;;;;;;;6.73;5.30;;;;;;;;;;4971260;28;21458;-56
2022/11/05 11:34:37;;;;;;;6.80;5.30;;;;;;;;;;4970082;28;20438;-56
2022/11/05 11:37:03;;;;;;;8.87;4.90;;;;;;;;;;4982612;28;20429;-56
2022/11/05 11:39:30;;;;;;;7.53;5.57;;;;;;;;;;4952651;28;21017;-57
2022/11/05 11:41:57;;;;;;;5.97;4.47;;;;;;;;;;4970241;28;20463;-58
2022/11/05 11:44:28;;;;;;;10.57;5.47;;;;;;;;;;4981020;28;20499;-57
2022/11/05 11:46:55;;;;;;;7.37;5.03;;;;;;;;;;4997670;28;20441;-58
2022/11/05 11:49:40;;;;;;;10.03;4.67;;;;;;;;;;4982909;28;20433;-57
2022/11/05 11:52:15;;;;;;;6.00;4.60;;;;;;;;;;4982735;28;20480;-57
2022/11/05 11:54:41;;;;;;;6.07;4.50;;;;;;;;;;4958729;28;20514;-58
2022/11/05 11:57:26;;;;;;;7.93;5.67;;;;;;;;;;4978498;28;20433;-59
2022/11/05 11:59:53;;;;;;;6.63;4.63;;;;;;;;;;4942887;28;20496;-57
2022/11/05 12:02:37;;;;;;;5.50;4.60;;;;;;;;;;4981104;28;20451;-57
2022/11/05 12:05:10;;;;;;;7.10;4.90;;;;;;;;;;4979511;28;20437;-57
2022/11/05 12:07:42;;;;;;;6.20;3.90;;;;;;;;;;4973121;28;20467;-57
2022/11/05 12:10:27;;;;;;;5.00;4.50;;;;;;;;;;4936446;28;20453;-59
2022/11/05 12:13:12;;;;;;;6.00;4.50;;;;;;;;;;4978206;28;20503;-57
2022/11/05 12:15:57;;;;;;;6.10;4.00;;;;;;;;;;4966118;28;20568;-58
2022/11/05 12:18:42;;;;;;;6.00;4.13;;;;;;;;;;4976691;28;20448;-58
2022/11/05 12:21:26;;;;;;;5.87;5.13;;;;;;;;;;4974576;28;20750;-58
2022/11/05 12:24:13;;;;;;;9.83;4.67;;;;;;;;;;4944397;28;20527;-56
2022/11/05 12:26:58;;;;;;;5.00;4.37;;;;;;;;;;4968422;28;20448;-56
2022/11/05 12:29:46;;;;;;;4.97;4.47;;;;;;;;;;4942626;28;21140;-57
2022/11/05 12:32:21;;;;;;;8.40;4.17;;;;;;;;;;4970015;28;20476;-57
2022/11/05 12:34:51;;;;;;;6.43;5.13;;;;;;;;;;4921090;28;20459;-62
2022/11/05 12:37:28;;;;;;;6.30;5.00;;;;;;;;;;4951113;28;20943;-56
2022/11/05 12:40:13;;;;;;;6.90;5.00;;;;;;;;;;4954535;28;21099;-56
2022/11/05 12:42:58;;;;;;;7.63;5.03;;;;;;;;;;4977743;28;20456;-56
2022/11/05 12:45:24;;;;;;;6.23;4.90;;;;;;;;;;4963360;28;20443;-57
2022/11/05 12:48:04;;;;;;;7.63;5.27;;;;;;;;;;4989590;28;20441;-57
2022/11/05 12:50:49;;;;;;;6.30;4.80;;;;;;;;;;4947690;28;20795;-56
2022/11/05 12:53:15;;;;;;;9.23;5.53;;;;;;;;;;4956824;28;20804;-58
2022/11/05 12:55:42;;;;;;;7.53;5.63;;;;;;;;;;4975340;28;20444;-58
2022/11/05 12:58:13;;;;;;;6.20;4.67;;;;;;;;;;4955462;28;20453;-58
2022/11/05 13:00:42;;;;;;;8.07;5.17;;;;;;;;;;4957140;28;21261;-55
2022/11/05 13:03:23;;;;;;;6.47;5.40;;;;;;;;;;4948663;28;20468;-55
2022/11/05 13:05:55;;;;;;;8.20;5.40;;;;;;;;;;4970504;28;20453;-55
2022/11/05 13:08:29;;;;;;;6.83;5.20;;;;;;;;;;4961114;28;20513;-58
2022/11/05 13:10:58;;;;;;;7.50;5.23;;;;;;;;;;4964205;28;22024;-57
2022/11/05 13:13:26;;;;;;;8.73;6.83;;;;;;;;;;4951108;28;20528;-58
2022/11/05 13:15:53;;;;;;;7.60;5.03;;;;;;;;;;4953501;28;21170;-56
2022/11/05 13:18:21;;;;;;;8.00;5.60;;;;;;;;;;4969138;28;22979;-58
2022/11/05 13:20:49;;;;;;;11.13;5.33;;;;;;;;;;4962893;28;20440;-57
2022/11/05 13:23:23;;;;;;;8.53;5.30;;;;;;;;;;4964034;28;20445;-57
2022/11/05 13:25:59;;;;;;;9.30;5.50;;;;;;;;;;4949672;28;20441;-57
2022/11/05 13:28:35;;;;;;;8.03;5.20;;;;;;;;;;4967833;28;20444;-57
2022/11/05 13:31:02;;;;;;;6.87;5.13;;;;;;;;;;4958513;28;20462;-57
2022/11/05 13:33:36;;;;;;;7.37;5.60;;;;;;;;;;4963641;28;20453;-57
2022/11/05 13:39:13;;;;;;;10.60;5.13;;;;;;;;;;4956580;28;20805;-56
2022/11/05 13:41:58;;;;;;;7.50;4.33;;;;;;;;;;4966533;28;20460;-55
2022/11/05 13:44:24;;;;;;;4.80;3.87;;;;;;;;;;4942729;28;21225;-56
2022/11/05 13:47:01;;;;;;;7.77;5.37;;;;;;;;;;4969030;28;20542;-57
2022/11/05 13:49:43;;;;;;;5.53;3.97;;;;;;;;;;4963370;28;20178;-56
2022/11/05 13:52:09;;;;;;;11.87;4.70;;;;;;;;;;4976868;28;20579;-57
2022/11/05 13:54:41;;;;;;;11.40;5.53;;;;;;;;;;4955796;28;20683;-57
2022/11/05 13:57:28;;;;;;;5.80;4.40;;;;;;;;;;4975975;28;20491;-57
2022/11/05 13:59:58;;;;;;;6.20;5.17;;;;;;;;;;4968201;28;20515;-59
2022/11/05 14:02:25;;;;;;;7.60;5.10;;;;;;;;;;4975360;28;20430;-58
2022/11/05 14:04:55;;;;;;;8.90;4.50;;;;;;;;;;4952059;28;20451;-57
2022/11/05 14:07:25;;;;;;;7.23;5.00;;;;;;;;;;4979781;28;20433;-56
2022/11/05 14:09:52;;;;;;;6.97;4.83;;;;;;;;;;4933311;28;20451;-57
2022/11/05 14:12:23;;;;;;;7.77;4.93;;;;;;;;;;4965758;28;20508;-58
2022/11/05 14:14:52;;;;;;;9.53;5.60;;;;;;;;;;4954139;28;20532;-56
2022/11/05 14:17:44;;;;;;;9.43;5.27;;;;;;;;;;4970223;28;20440;-57
2022/11/05 14:20:23;;;;;;;7.80;5.00;;;;;;;;;;4959686;28;20445;-56
2022/11/05 14:22:49;;;;;;;8.53;5.70;;;;;;;;;;4997790;28;20429;-56
2022/11/05 14:25:18;;;;;;;5.60;4.77;;;;;;;;;;4946979;28;20464;-57
2022/11/05 14:27:45;;;;;;;9.10;5.10;;;;;;;;;;4971981;28;20455;-54
2022/11/05 14:30:29;;;;;;;8.60;4.97;;;;;;;;;;4939890;28;20447;-55
2022/11/05 14:33:02;;;;;;;8.17;5.53;;;;;;;;;;4971114;28;20500;-54
2022/11/05 14:35:35;;;;;;;6.23;4.60;;;;;;;;;;4917086;28;20449;-57
2022/11/05 14:38:01;;;;;;;7.40;5.33;;;;;;;;;;4970868;28;20446;-56
2022/11/05 14:40:30;;;;;;;9.97;6.20;;;;;;;;;;4941521;28;20838;-57
2022/11/05 14:43:00;;;;;;;7.90;5.80;;;;;;;;;;4971648;28;20448;-55
2022/11/05 14:45:38;;;;;;;9.20;6.37;;;;;;;;;;4952399;28;20936;-58
2022/11/05 14:48:05;;;;;;;8.43;5.80;;;;;;;;;;4946991;28;20455;-58
2022/11/05 14:50:35;;;;;;;8.53;5.90;;;;;;;;;;4968366;28;20512;-57
2022/11/05 14:53:12;;;;;;;22.63;6.43;;;;;;;;;;4972135;28;20495;-58
2022/11/05 14:55:39;;;;;;;6.93;4.80;;;;;;;;;;4967530;28;20517;-57
2022/11/05 14:58:25;;;;;;;7.83;5.40;;;;;;;;;;4931176;28;20594;-56
2022/11/05 15:00:52;;;;;;;8.73;6.73;;;;;;;;;;4951964;28;21027;-56
2022/11/05 15:03:41;;;;;;;9.50;5.90;;;;;;;;;;4962624;28;20460;-58
2022/11/05 15:06:07;;;;;;;11.73;5.57;;;;;;;;;;4942495;28;20471;-56
2022/11/05 15:08:36;;;;;;;9.13;4.90;;;;;;;;;;4971363;28;20510;-56
2022/11/05 15:11:11;;;;;;;15.40;6.70;;;;;;;;;;4952635;28;22157;-56
2022/11/05 15:13:44;;;;;;;7.07;5.50;;;;;;;;;;4971934;28;20451;-56
2022/11/05 15:16:11;;;;;;;8.93;6.27;;;;;;;;;;4953587;28;21730;-56
2022/11/05 15:18:43;;;;;;;13.50;6.40;;;;;;;;;;4973290;28;20432;-56
2022/11/05 15:21:11;;;;;;;10.60;5.67;;;;;;;;;;4979276;28;20938;-56
2022/11/05 15:23:41;;;;;;;8.13;6.10;;;;;;;;;;4977037;28;20475;-55
2022/11/05 15:26:09;;;;;;;8.90;5.20;;;;;;;;;;4942336;28;20437;-60
2022/11/05 15:28:51;;;;;;;8.40;6.40;;;;;;;;;;4966093;28;20452;-58
2022/11/05 15:31:20;;;;;;;8.90;5.53;;;;;;;;;;4953567;28;20507;-57
2022/11/05 15:33:47;;;;;;;8.40;5.13;;;;;;;;;;4980864;28;20467;-57
2022/11/05 15:36:26;;;;;;;10.17;5.17;;;;;;;;;;4936513;28;20910;-57
2022/11/05 15:38:53;;;;;;;13.33;5.30;;;;;;;;;;4979258;28;20443;-56